Wise River, Montana
Current Conditions -  °F | °C
As of 7:53 PM on Friday 19 Dec 2014 (Local Time) from KBTM Reporting Station
Light Snow Light Snow  
Wind Chill: 25°   Ceiling: 6500
Heat Index: 31°   Visibility: 6mi
Dew Point: 26°   Wind: 6mph
Humidity: 82%   Direction: 90°E
Pressure: 29.92"   Gusts: NA
Location:  45.79°N, 112.95°W
Report Text: KBTM 200253Z AUTO 09005KT 6SM -SN SCT027 OVC065 M01/M03 A2992 RMK AO2 SNB46 SLP173 P0000 60000 T10061033 53005
Loading
Personal Weather Stations






























Interactive Weather Map New forecast layout! Learn more

10-Day Weather Forecast

Advertisements
Track Severe Weather on mobile